Time;durP1;ratioP1;P1;durP2;ratioP2;P2;SDS_P1;SDS_P2;PMS_P1;PMS_P2;Temp;Humidity;BMP_temperature;BMP_pressure;BME280_temperature;BME280_humidity;BME280_pressure;Samples;Min_cycle;Max_cycle;Signal;HPM_P1;HPM_P2
2023/07/28 00:01:13;;;;;;;;;;;;;;;22.51;29.73;97747.94;5025119;28;1032;-80
2023/07/28 00:03:38;;;;;;;;;;;;;;;22.26;29.77;97745.94;5022892;28;1202;-81
2023/07/28 00:06:04;;;;;;;;;;;;;;;22.12;30.20;97754.13;5025136;28;814;-80
2023/07/28 00:08:29;;;;;;;;;;;;;;;22.40;29.76;97752.41;5022043;28;920;-81
2023/07/28 00:10:55;;;;;;;;;;;;;;;22.58;29.43;97749.72;5025276;28;1126;-81
2023/07/28 00:13:20;;;;;;;;;;;;;;;22.68;29.35;97745.72;5007022;28;1167;-81
2023/07/28 00:15:46;;;;;;;;;;;;;;;22.74;29.30;97743.91;5025756;28;1958;-81
2023/07/28 00:18:11;;;;;;;;;;;;;;;22.47;29.83;97746.47;5006773;28;1160;-81
2023/07/28 00:20:37;;;;;;;;;;;;;;;22.58;29.51;97741.22;5024352;28;1201;-81
2023/07/28 00:23:02;;;;;;;;;;;;;;;22.40;29.85;97750.34;5035583;28;885;-81
2023/07/28 00:25:28;;;;;;;;;;;;;;;22.34;30.01;97755.81;5009187;28;1180;-81
2023/07/28 00:27:53;;;;;;;;;;;;;;;22.63;29.61;97746.31;5040944;28;798;-81
2023/07/28 00:30:19;;;;;;;;;;;;;;;22.18;30.31;97741.78;5040695;28;1088;-81
2023/07/28 00:32:46;;;;;;;;;;;;;;;22.55;29.46;97733.66;5023640;28;1206;-81
2023/07/28 00:35:12;;;;;;;;;;;;;;;22.49;29.86;97741.94;5039232;28;1231;-81
2023/07/28 00:37:37;;;;;;;;;;;;;;;22.54;29.80;97740.56;5040736;28;1966;-81
2023/07/28 00:40:03;;;;;;;;;;;;;;;22.70;29.52;97731.91;5022541;28;1306;-81
2023/07/28 00:42:29;;;;;;;;;;;;;;;22.10;30.34;97740.38;5041593;28;915;-81
2023/07/28 00:44:54;;;;;;;;;;;;;;;22.49;29.71;97741.94;5040425;28;1234;-80
2023/07/28 00:47:20;;;;;;;;;;;;;;;22.57;29.83;97748.16;5041904;28;1142;-81
2023/07/28 00:49:45;;;;;;;;;;;;;;;22.58;29.91;97742.00;5007282;28;1208;-81
2023/07/28 00:52:11;;;;;;;;;;;;;;;22.75;29.43;97739.03;5025079;28;819;-81
2023/07/28 00:54:36;;;;;;;;;;;;;;;22.48;29.81;97748.06;5025061;28;940;-81
2023/07/28 00:57:02;;;;;;;;;;;;;;;22.73;29.49;97741.53;5025104;28;1976;-81
2023/07/28 00:59:28;;;;;;;;;;;;;;;22.47;30.08;97752.94;5042288;28;1181;-81
2023/07/28 01:01:54;;;;;;;;;;;;;;;22.63;30.01;97749.16;5027357;28;838;-81
2023/07/28 01:04:19;;;;;;;;;;;;;;;22.43;30.28;97743.75;5042709;28;1203;-80
2023/07/28 01:06:51;;;;;;;;;;;;;;;22.58;30.03;97746.91;5043391;28;1171;-81
2023/07/28 01:09:18;;;;;;;;;;;;;;;22.81;29.62;97742.88;5042344;28;1558;-81
2023/07/28 01:11:56;;;;;;;;;;;;;;;22.85;29.71;97744.31;5007056;28;891;-81
2023/07/28 01:14:22;;;;;;;;;;;;;;;22.45;30.31;97754.66;5006258;28;1133;-81
2023/07/28 01:16:47;;;;;;;;;;;;;;;22.47;30.54;97754.97;5007067;28;1886;-81
2023/07/28 01:19:13;;;;;;;;;;;;;;;22.30;30.41;97749.47;4982875;28;946;-81
2023/07/28 01:21:38;;;;;;;;;;;;;;;22.52;30.41;97754.41;4952413;28;1253;-81
2023/07/28 01:24:07;;;;;;;;;;;;;;;22.91;29.79;97755.91;4982590;28;886;-81
2023/07/28 01:26:34;;;;;;;;;;;;;;;22.88;29.68;97753.97;4968083;28;1444;-81
2023/07/28 01:29:00;;;;;;;;;;;;;;;22.90;29.78;97754.31;4966593;28;944;-80
2023/07/28 01:31:25;;;;;;;;;;;;;;;22.64;30.17;97764.94;4951893;28;1140;-81
2023/07/28 01:33:51;;;;;;;;;;;;;;;22.91;29.76;97764.41;4982986;28;1349;-81
2023/07/28 01:36:16;;;;;;;;;;;;;;;22.50;30.46;97777.53;4968945;28;1898;-81
2023/07/28 01:38:42;;;;;;;;;;;;;;;22.79;29.89;97780.19;4966306;28;854;-81
2023/07/28 01:41:07;;;;;;;;;;;;;;;22.73;30.03;97784.84;4968682;28;1224;-81
2023/07/28 01:43:33;;;;;;;;;;;;;;;22.77;30.12;97782.69;4966497;28;1302;-81
2023/07/28 01:45:58;;;;;;;;;;;;;;;22.83;29.89;97786.53;4965562;29;1132;-81
2023/07/28 01:48:24;;;;;;;;;;;;;;;22.86;29.85;97788.47;4955104;28;1156;-81
2023/07/28 01:50:49;;;;;;;;;;;;;;;22.53;30.24;97784.34;4969565;28;1152;-81
2023/07/28 01:53:15;;;;;;;;;;;;;;;22.87;29.86;97792.09;4966689;29;1294;-81
2023/07/28 01:55:41;;;;;;;;;;;;;;;22.78;29.69;97795.63;4968416;28;1234;-81
2023/07/28 01:58:06;;;;;;;;;;;;;;;22.66;30.11;97798.50;4967019;28;1899;-81
2023/07/28 02:00:32;;;;;;;;;;;;;;;22.64;29.87;97790.47;4948506;29;1101;-81
2023/07/28 02:02:58;;;;;;;;;;;;;;;22.51;30.44;97798.97;4947882;29;1378;-81
2023/07/28 02:05:24;;;;;;;;;;;;;;;22.38;30.64;97797.41;4932905;29;1453;-80
2023/07/28 02:07:49;;;;;;;;;;;;;;;22.76;29.57;97800.97;4968113;28;1610;-81
2023/07/28 02:10:15;;;;;;;;;;;;;;;22.95;29.31;97798.31;4967477;29;920;-81
2023/07/28 02:12:41;;;;;;;;;;;;;;;22.46;30.41;97804.44;4940852;29;1099;-81
2023/07/28 02:15:06;;;;;;;;;;;;;;;22.57;30.09;97813.38;4966791;28;1142;-81
2023/07/28 02:17:32;;;;;;;;;;;;;;;22.63;29.92;97814.38;4968214;29;1900;-81
2023/07/28 02:19:57;;;;;;;;;;;;;;;22.64;29.94;97813.16;4967090;28;1245;-80
2023/07/28 02:22:23;;;;;;;;;;;;;;;22.56;30.00;97823.13;4967867;28;1114;-81
2023/07/28 02:24:49;;;;;;;;;;;;;;;22.39;30.26;97830.19;4981999;28;877;-81
2023/07/28 02:27:14;;;;;;;;;;;;;;;22.82;29.90;97830.34;4966823;29;1180;-80
2023/07/28 02:29:41;;;;;;;;;;;;;;;22.92;29.65;97827.63;4981896;28;1053;-81
2023/07/28 02:32:08;;;;;;;;;;;;;;;22.59;29.94;97834.38;4988571;28;1270;-81
2023/07/28 02:34:33;;;;;;;;;;;;;;;22.82;29.70;97830.34;4985182;28;935;-81
2023/07/28 02:36:59;;;;;;;;;;;;;;;22.60;29.96;97826.66;5003091;28;1895;-81
2023/07/28 02:39:24;;;;;;;;;;;;;;;22.81;29.73;97839.31;4985513;28;1151;-81
2023/07/28 02:41:50;;;;;;;;;;;;;;;22.83;29.65;97831.91;5002620;28;1233;-81
2023/07/28 02:44:15;;;;;;;;;;;;;;;22.52;30.15;97839.47;5001502;28;812;-81
2023/07/28 02:46:41;;;;;;;;;;;;;;;22.84;29.26;97835.53;5001972;28;851;-81
2023/07/28 02:49:06;;;;;;;;;;;;;;;22.63;29.84;97834.22;4984811;28;1210;-81
2023/07/28 02:51:34;;;;;;;;;;;;;;;22.53;30.11;97843.88;5002878;28;1239;-81
2023/07/28 02:53:59;;;;;;;;;;;;;;;22.56;29.91;97846.59;5000655;28;1099;-81
2023/07/28 02:56:25;;;;;;;;;;;;;;;22.50;29.93;97847.63;5002141;28;1966;-81
2023/07/28 02:58:51;;;;;;;;;;;;;;;22.66;29.78;97844.66;5000411;28;1178;-81
2023/07/28 03:01:17;;;;;;;;;;;;;;;22.59;29.85;97845.69;5004252;28;848;-80
2023/07/28 03:03:42;;;;;;;;;;;;;;;22.62;29.68;97832.63;5030334;28;1073;-81
2023/07/28 03:06:08;;;;;;;;;;;;;;;22.49;30.06;97846.06;5043607;28;1181;-81
2023/07/28 03:08:36;;;;;;;;;;;;;;;22.68;29.67;97842.16;5023586;28;964;-81
2023/07/28 03:11:19;;;;;;;;;;;;;;;22.79;29.64;97847.47;5025776;28;1418;-81
2023/07/28 03:13:44;;;;;;;;;;;;;;;22.41;29.98;97856.03;5040758;28;1284;-81
2023/07/28 03:16:10;;;;;;;;;;;;;;;22.71;29.92;97852.59;5042560;28;1891;-81
2023/07/28 03:18:35;;;;;;;;;;;;;;;22.60;30.00;97855.78;5039513;28;1225;-81
2023/07/28 03:21:01;;;;;;;;;;;;;;;22.63;29.64;97856.91;5041741;28;1388;-81
2023/07/28 03:23:27;;;;;;;;;;;;;;;22.75;29.70;97853.28;5022335;28;1142;-81
2023/07/28 03:25:52;;;;;;;;;;;;;;;22.32;30.08;97865.22;5020151;28;1194;-80
2023/07/28 03:28:18;;;;;;;;;;;;;;;22.74;29.51;97862.22;4982431;28;1326;-81
2023/07/28 03:30:44;;;;;;;;;;;;;;;22.79;29.56;97853.13;5011431;28;1249;-79
2023/07/28 03:33:10;;;;;;;;;;;;;;;22.60;29.81;97863.50;5009391;28;1393;-80
2023/07/28 03:35:35;;;;;;;;;;;;;;;22.88;29.06;97870.28;4992493;28;1443;-81
2023/07/28 03:38:06;;;;;;;;;;;;;;;22.79;29.25;97870.16;5016505;28;1985;-80
2023/07/28 03:40:32;;;;;;;;;;;;;;;22.49;30.02;97877.25;5000661;28;1521;-81
2023/07/28 03:42:58;;;;;;;;;;;;;;;22.84;29.19;97873.22;5018755;28;1317;-80
2023/07/28 03:45:23;;;;;;;;;;;;;;;22.82;29.42;97875.72;4986759;28;869;-80
2023/07/28 03:47:49;;;;;;;;;;;;;;;22.54;30.06;97876.69;5002490;28;814;-80
2023/07/28 03:50:14;;;;;;;;;;;;;;;22.63;29.67;97874.72;5032689;28;1193;-80
2023/07/28 03:52:40;;;;;;;;;;;;;;;22.57;30.25;97887.09;4982536;28;1568;-80
2023/07/28 03:55:05;;;;;;;;;;;;;;;23.01;31.21;97875.97;4966101;28;1374;-80
2023/07/28 03:57:31;;;;;;;;;;;;;;;23.19;31.05;97881.00;4949735;28;1967;-81
2023/07/28 03:59:56;;;;;;;;;;;;;;;22.95;31.17;97881.41;5000857;28;1378;-81
2023/07/28 04:02:22;;;;;;;;;;;;;;;23.03;30.25;97884.78;5018048;28;787;-81
2023/07/28 04:04:52;;;;;;;;;;;;;;;22.66;30.83;97890.03;5001142;28;1014;-80
2023/07/28 04:07:18;;;;;;;;;;;;;;;22.66;30.42;97898.56;5018224;28;1159;-80
2023/07/28 04:09:44;;;;;;;;;;;;;;;22.85;29.87;97891.06;4999546;28;1443;-80
2023/07/28 04:12:09;;;;;;;;;;;;;;;22.86;29.38;97904.78;4969824;28;1235;-80
2023/07/28 04:14:36;;;;;;;;;;;;;;;22.71;29.67;97909.31;4983897;28;857;-80
2023/07/28 04:17:01;;;;;;;;;;;;;;;22.64;29.35;97920.91;4970282;28;1914;-79
2023/07/28 04:19:29;;;;;;;;;;;;;;;22.77;29.14;97929.41;4999430;28;1390;-80
2023/07/28 04:21:54;;;;;;;;;;;;;;;22.95;28.45;97934.50;5002189;28;1076;-80
2023/07/28 04:24:20;;;;;;;;;;;;;;;22.80;28.48;97934.97;5012176;28;1303;-80
2023/07/28 04:26:50;;;;;;;;;;;;;;;22.80;28.29;97945.53;5041828;28;1287;-80
2023/07/28 04:29:17;;;;;;;;;;;;;;;22.40;29.01;97939.50;5022688;28;1604;-80
2023/07/28 04:31:43;;;;;;;;;;;;;;;22.80;27.94;97943.47;5024274;28;1171;-80
2023/07/28 04:34:11;;;;;;;;;;;;;;;22.73;27.78;97952.19;5006924;28;1250;-81
2023/07/28 04:37:03;;;;;;;;;;;;;;;22.83;27.39;97944.59;5023906;28;1910;-80
2023/07/28 04:39:41;;;;;;;;;;;;;;;22.67;27.86;97945.50;5012547;28;1661;-80
2023/07/28 04:42:09;;;;;;;;;;;;;;;22.91;27.25;97945.22;5012837;28;1442;-80
2023/07/28 04:44:39;;;;;;;;;;;;;;;22.63;27.63;97942.00;5038899;28;1402;-80
2023/07/28 04:47:05;;;;;;;;;;;;;;;22.43;27.91;97945.03;5039705;28;1436;-80
2023/07/28 04:49:30;;;;;;;;;;;;;;;22.65;27.26;97948.03;4990843;28;1796;-80
2023/07/28 04:52:08;;;;;;;;;;;;;;;22.42;27.91;97940.63;4999640;28;1626;-80
2023/07/28 04:54:50;;;;;;;;;;;;;;;22.57;27.24;97944.59;4975351;28;1436;-80
2023/07/28 04:57:17;;;;;;;;;;;;;;;22.50;27.38;97944.03;4981417;28;1962;-80
2023/07/28 04:59:43;;;;;;;;;;;;;;;22.58;27.39;97939.72;4970230;28;1062;-81
2023/07/28 05:02:09;;;;;;;;;;;;;;;22.70;26.81;97941.78;4969280;28;1251;-80
2023/07/28 05:04:36;;;;;;;;;;;;;;;22.58;27.19;97940.50;5000248;28;1120;-80
2023/07/28 05:07:02;;;;;;;;;;;;;;;22.33;27.45;97944.16;4969366;28;1611;-80
2023/07/28 05:09:28;;;;;;;;;;;;;;;22.25;27.76;97939.13;4983435;28;878;-80
2023/07/28 05:11:54;;;;;;;;;;;;;;;22.58;26.94;97939.72;4985414;28;1092;-80
2023/07/28 05:14:20;;;;;;;;;;;;;;;22.43;27.20;97938.56;4983739;28;1236;-80
2023/07/28 05:16:46;;;;;;;;;;;;;;;22.43;27.37;97945.03;4968832;28;1912;-80
2023/07/28 05:19:12;;;;;;;;;;;;;;;22.65;26.82;97950.84;4983753;28;942;-80
2023/07/28 05:21:52;;;;;;;;;;;;;;;22.56;27.19;97943.00;5021989;28;786;-81
2023/07/28 05:24:22;;;;;;;;;;;;;;;22.44;27.02;97945.84;5005287;28;1206;-80
2023/07/28 05:26:48;;;;;;;;;;;;;;;22.48;27.12;97935.19;5024426;28;1379;-81
2023/07/28 05:29:14;;;;;;;;;;;;;;;22.39;27.08;97949.25;5058564;28;1133;-80
2023/07/28 05:31:40;;;;;;;;;;;;;;;22.59;27.04;97942.13;5027945;28;1255;-80
2023/07/28 05:34:16;;;;;;;;;;;;;;;22.57;27.02;97944.59;5042800;28;1426;-80
2023/07/28 05:36:41;;;;;;;;;;;;;;;22.57;26.69;97946.66;5027368;28;1977;-80
2023/07/28 05:39:07;;;;;;;;;;;;;;;22.51;27.06;97943.59;5026189;28;1380;-80
2023/07/28 05:41:42;;;;;;;;;;;;;;;22.30;27.22;97947.06;5028864;28;1119;-80
2023/07/28 05:44:10;;;;;;;;;;;;;;;22.88;26.55;97946.91;5026345;28;1424;-80
2023/07/28 05:46:35;;;;;;;;;;;;;;;22.69;26.64;97943.03;5023693;28;1016;-80
2023/07/28 05:49:01;;;;;;;;;;;;;;;22.48;27.09;97947.31;4997336;28;1261;-80
2023/07/28 05:51:27;;;;;;;;;;;;;;;22.42;27.08;97945.50;5010104;28;1562;-80
2023/07/28 05:53:53;;;;;;;;;;;;;;;22.36;27.04;97936.75;5009697;28;1591;-80
2023/07/28 05:56:19;;;;;;;;;;;;;;;22.42;27.11;97929.28;5027373;28;1959;-80
2023/07/28 05:58:48;;;;;;;;;;;;;;;22.41;27.34;97929.75;5002520;28;1289;-80
2023/07/28 06:01:14;;;;;;;;;;;;;;;22.57;27.11;97932.47;5002083;28;1320;-81
2023/07/28 06:04:15;;;;;;;;;;;;;;;22.50;27.35;97927.03;4975825;28;860;-81
2023/07/28 06:06:47;;;;;;;;;;;;;;;22.46;27.22;97932.81;4979995;28;1127;-80
2023/07/28 06:09:14;;;;;;;;;;;;;;;22.58;27.19;97934.06;4988101;28;1584;-80
2023/07/28 06:11:40;;;;;;;;;;;;;;;22.48;27.20;97929.50;4968928;28;1221;-80
2023/07/28 06:14:06;;;;;;;;;;;;;;;22.35;27.47;97916.13;4966998;28;1437;-80
2023/07/28 06:16:34;;;;;;;;;;;;;;;22.47;27.45;97916.59;4984717;28;1899;-80
2023/07/28 06:19:00;;;;;;;;;;;;;;;22.26;27.68;97921.66;4959698;29;1362;-80
2023/07/28 06:21:26;;;;;;;;;;;;;;;22.22;27.85;97929.47;4965042;28;1152;-80
2023/07/28 06:23:51;;;;;;;;;;;;;;;22.59;27.27;97930.00;4979711;28;795;-80
2023/07/28 06:26:17;;;;;;;;;;;;;;;22.74;27.22;97931.13;4949294;29;1088;-80
2023/07/28 06:28:42;;;;;;;;;;;;;;;22.57;27.56;97938.94;4949185;28;1116;-80
2023/07/28 06:31:09;;;;;;;;;;;;;;;22.34;27.86;97942.09;5000842;28;1223;-80
2023/07/28 06:33:35;;;;;;;;;;;;;;;22.38;27.56;97937.09;4982232;28;1087;-80
2023/07/28 06:36:00;;;;;;;;;;;;;;;22.59;27.18;97930.78;5000381;28;1883;-80
2023/07/28 06:38:27;;;;;;;;;;;;;;;22.64;27.39;97935.09;5025052;28;1137;-80
2023/07/28 06:40:52;;;;;;;;;;;;;;;22.60;27.37;97937.25;5044004;28;766;-80
2023/07/28 06:43:19;;;;;;;;;;;;;;;22.43;27.47;97935.75;5025929;28;1214;-80
2023/07/28 06:45:46;;;;;;;;;;;;;;;22.39;27.79;97937.91;5027348;28;1449;-80
2023/07/28 06:48:12;;;;;;;;;;;;;;;22.41;27.91;97946.75;5045067;28;1199;-81
2023/07/28 06:50:38;;;;;;;;;;;;;;;22.21;28.20;97955.44;5046474;28;816;-80
2023/07/28 06:53:04;;;;;;;;;;;;;;;22.61;27.21;97961.50;5061826;28;1199;-80
2023/07/28 06:55:30;;;;;;;;;;;;;;;22.34;27.72;97957.06;5030352;28;1273;-80
2023/07/28 06:57:56;;;;;;;;;;;;;;;22.56;27.49;97960.03;5045747;28;1910;-80
2023/07/28 07:00:23;;;;;;;;;;;;;;;22.41;27.74;97964.56;5021433;28;1340;-80
2023/07/28 07:02:48;;;;;;;;;;;;;;;22.56;27.31;97964.91;5005717;28;1275;-80
2023/07/28 07:05:14;;;;;;;;;;;;;;;22.23;27.84;97959.44;5021221;28;1166;-80
2023/07/28 07:07:40;;;;;;;;;;;;;;;22.18;28.02;97977.00;5005931;28;913;-80
2023/07/28 07:10:06;;;;;;;;;;;;;;;22.52;27.45;97975.56;4987807;28;1166;-80
2023/07/28 07:12:32;;;;;;;;;;;;;;;22.28;27.81;97981.56;5005557;28;1106;-80
2023/07/28 07:14:57;;;;;;;;;;;;;;;22.34;27.72;97982.56;5004625;28;1267;-80
2023/07/28 07:17:23;;;;;;;;;;;;;;;22.32;27.85;97985.06;5005366;28;1890;-80
2023/07/28 07:19:48;;;;;;;;;;;;;;;22.64;27.22;97986.13;5020960;28;968;-80
2023/07/28 07:22:14;;;;;;;;;;;;;;;22.67;27.24;97988.06;5004927;28;766;-80
2023/07/28 07:24:39;;;;;;;;;;;;;;;22.62;27.35;97986.56;5004037;28;855;-80
2023/07/28 07:27:05;;;;;;;;;;;;;;;22.39;27.75;97983.28;4988137;28;1481;-80
2023/07/28 07:29:31;;;;;;;;;;;;;;;22.36;27.73;97993.47;5019446;28;1506;-80
2023/07/28 07:31:56;;;;;;;;;;;;;;;22.59;27.29;97992.38;5022476;28;1471;-80
2023/07/28 07:34:23;;;;;;;;;;;;;;;22.48;27.46;97997.56;5043425;28;1520;-80
2023/07/28 07:36:48;;;;;;;;;;;;;;;22.33;27.53;97992.34;5027691;28;1902;-80
2023/07/28 07:39:14;;;;;;;;;;;;;;;22.57;27.12;97986.34;5026736;28;1528;-80
2023/07/28 07:41:39;;;;;;;;;;;;;;;22.46;27.32;97995.19;5028118;28;1411;-80
2023/07/28 07:44:05;;;;;;;;;;;;;;;22.51;27.27;97991.78;5061307;28;1446;-79
2023/07/28 07:46:30;;;;;;;;;;;;;;;22.31;27.59;97994.81;5045511;28;1450;-81
2023/07/28 07:48:56;;;;;;;;;;;;;;;22.47;27.24;97996.75;5037392;28;1500;-80
2023/07/28 07:51:21;;;;;;;;;;;;;;;22.31;27.40;98000.47;5044195;28;1594;-80
2023/07/28 07:53:47;;;;;;;;;;;;;;;22.54;27.36;97992.94;5042691;28;1657;-80
2023/07/28 07:56:13;;;;;;;;;;;;;;;22.56;27.23;97993.28;5044802;28;2044;-80
2023/07/28 07:58:38;;;;;;;;;;;;;;;22.39;27.75;97994.63;5062863;28;1648;-81
2023/07/28 08:01:04;;;;;;;;;;;;;;;22.48;27.48;97994.72;5002972;28;1191;-80
2023/07/28 08:03:29;;;;;;;;;;;;;;;22.38;27.46;97993.78;4967680;28;1281;-80
2023/07/28 08:05:55;;;;;;;;;;;;;;;22.52;26.94;97993.38;4966040;28;944;-80
2023/07/28 08:08:21;;;;;;;;;;;;;;;22.50;27.33;97989.41;4964766;28;1116;-80
2023/07/28 08:10:47;;;;;;;;;;;;;;;22.59;27.09;97998.84;4977664;28;1682;-80
2023/07/28 08:13:12;;;;;;;;;;;;;;;22.63;27.07;97981.69;4961471;28;908;-80
2023/07/28 08:15:38;;;;;;;;;;;;;;;22.35;27.37;97978.50;4923904;29;938;-80
2023/07/28 08:18:03;;;;;;;;;;;;;;;22.46;27.40;97988.72;4920068;29;1899;-80
2023/07/28 08:20:30;;;;;;;;;;;;;;;22.51;27.15;97986.13;4907419;29;1632;-80
2023/07/28 08:22:56;;;;;;;;;;;;;;;22.67;26.92;97996.56;4905775;29;1464;-80
2023/07/28 08:25:23;;;;;;;;;;;;;;;22.47;27.22;97990.31;4889029;29;1487;-80
2023/07/28 08:27:49;;;;;;;;;;;;;;;22.46;27.30;97989.50;4885566;29;1623;-80
2023/07/28 08:30:15;;;;;;;;;;;;;;;22.49;27.33;97985.00;4866936;29;1332;-80
2023/07/28 08:32:41;;;;;;;;;;;;;;;22.75;26.98;97983.75;4881153;29;1082;-80
2023/07/28 08:35:08;;;;;;;;;;;;;;;22.58;27.30;97979.41;4885032;29;912;-79
2023/07/28 08:37:33;;;;;;;;;;;;;;;22.54;27.02;97987.25;4884963;29;1982;-80
2023/07/28 08:39:59;;;;;;;;;;;;;;;22.56;27.22;97993.28;4888000;29;1341;-79
2023/07/28 08:42:24;;;;;;;;;;;;;;;22.50;27.46;97989.41;4923574;29;943;-80
2023/07/28 08:44:52;;;;;;;;;;;;;;;22.63;27.00;97993.03;4921311;29;939;-80
2023/07/28 08:47:17;;;;;;;;;;;;;;;22.52;27.47;97992.56;4988084;28;968;-80
2023/07/28 08:49:43;;;;;;;;;;;;;;;22.54;27.22;97990.91;4982285;28;1237;-79
2023/07/28 08:52:08;;;;;;;;;;;;;;;22.42;27.48;97988.03;5000948;28;842;-80
2023/07/28 08:54:34;;;;;;;;;;;;;;;22.62;26.94;97991.47;4982578;28;1521;-80
2023/07/28 08:56:59;;;;;;;;;;;;;;;22.70;26.75;97987.16;4976054;28;1934;-80
2023/07/28 08:59:26;;;;;;;;;;;;;;;22.58;27.28;97973.75;5033802;28;1443;-80
2023/07/28 09:01:55;;;;;;;;;;;;;;;22.55;27.25;97969.00;5065503;28;1784;-80
2023/07/28 09:04:21;;;;;;;;;;;;;;;22.61;27.10;97975.69;5046033;28;1131;-80
2023/07/28 09:06:47;;;;;;;;;;;;;;;22.56;27.19;97976.25;5047195;28;1550;-80
2023/07/28 09:09:13;;;;;;;;;;;;;;;22.52;27.12;97975.56;5045178;28;1204;-80
2023/07/28 09:11:49;;;;;;;;;;;;;;;22.52;27.12;97972.72;5046163;28;1308;-80
2023/07/28 09:14:16;;;;;;;;;;;;;;;22.56;27.30;97979.88;5046221;28;1249;-80
2023/07/28 09:16:44;;;;;;;;;;;;;;;22.53;27.07;97977.16;5063550;28;1906;-80
2023/07/28 09:19:10;;;;;;;;;;;;;;;22.58;27.22;97976.59;5045892;28;1589;-80
2023/07/28 09:21:36;;;;;;;;;;;;;;;22.58;27.18;97979.41;5046506;28;1278;-80
2023/07/28 09:24:06;;;;;;;;;;;;;;;22.29;27.53;97985.19;5062246;28;910;-80
2023/07/28 09:26:38;;;;;;;;;;;;;;;22.46;27.50;97983.03;5029668;28;1286;-80
2023/07/28 09:29:19;;;;;;;;;;;;;;;22.56;27.43;97970.59;5045268;28;895;-80
2023/07/28 09:31:45;;;;;;;;;;;;;;;22.64;27.06;97969.13;5023123;28;1007;-80
2023/07/28 09:34:11;;;;;;;;;;;;;;;22.51;27.20;97969.09;5024974;28;1348;-80
2023/07/28 09:36:38;;;;;;;;;;;;;;;22.50;27.60;97972.41;5041607;28;1906;-80
2023/07/28 09:39:04;;;;;;;;;;;;;;;22.54;27.24;97973.88;5005714;28;1082;-80
2023/07/28 09:41:30;;;;;;;;;;;;;;;22.53;27.27;97962.97;4992237;28;1389;-80
2023/07/28 09:43:56;;;;;;;;;;;;;;;22.31;27.53;97968.50;5002474;28;764;-80
2023/07/28 09:46:22;;;;;;;;;;;;;;;22.38;27.58;97961.81;4987143;28;1255;-80
2023/07/28 09:48:47;;;;;;;;;;;;;;;22.57;27.39;97966.50;4985966;28;1392;-81
2023/07/28 09:51:14;;;;;;;;;;;;;;;22.38;27.77;97970.31;5003441;28;919;-80
2023/07/28 09:53:40;;;;;;;;;;;;;;;22.67;27.08;97971.03;5001216;28;1021;-80
2023/07/28 09:56:07;;;;;;;;;;;;;;;22.50;27.50;97969.56;4987643;28;1914;-80
2023/07/28 09:58:33;;;;;;;;;;;;;;;22.55;27.24;97966.97;5001681;28;821;-80
2023/07/28 10:00:59;;;;;;;;;;;;;;;22.68;26.85;97972.63;5003211;28;891;-80
2023/07/28 10:03:24;;;;;;;;;;;;;;;22.35;27.69;97969.19;5003589;28;1433;-80
2023/07/28 10:05:50;;;;;;;;;;;;;;;22.65;27.10;97967.09;5038086;28;931;-80
2023/07/28 10:08:15;;;;;;;;;;;;;;;22.24;27.67;97963.84;5045565;28;899;-80
2023/07/28 10:10:41;;;;;;;;;;;;;;;22.73;27.11;97963.53;5046804;28;1007;-80
2023/07/28 10:13:09;;;;;;;;;;;;;;;22.76;27.00;97962.66;5027065;28;1509;-79
2023/07/28 10:15:37;;;;;;;;;;;;;;;22.53;27.53;97960.13;5045747;28;1534;-79
2023/07/28 10:18:03;;;;;;;;;;;;;;;22.68;27.51;97952.78;5024688;28;1909;-80
2023/07/28 10:20:28;;;;;;;;;;;;;;;22.80;27.25;97948.38;5008804;28;1311;-80
2023/07/28 10:22:53;;;;;;;;;;;;;;;22.76;27.09;97939.97;5040680;28;1046;-80
2023/07/28 10:25:23;;;;;;;;;;;;;;;22.66;27.09;97952.44;5009139;28;935;-80
2023/07/28 10:27:50;;;;;;;;;;;;;;;22.45;27.61;97944.59;5008116;28;1330;-80
2023/07/28 10:30:15;;;;;;;;;;;;;;;22.43;27.84;97949.91;5005629;28;1390;-80
2023/07/28 10:32:43;;;;;;;;;;;;;;;22.59;27.34;97942.13;5024834;28;1529;-80
2023/07/28 10:35:17;;;;;;;;;;;;;;;22.65;27.48;97947.22;5007790;28;1050;-80
2023/07/28 10:37:48;;;;;;;;;;;;;;;22.70;27.24;97933.28;5041295;28;1887;-80
2023/07/28 10:40:31;;;;;;;;;;;;;;;22.58;27.26;97934.06;5008359;28;1184;-80
2023/07/28 10:42:57;;;;;;;;;;;;;;;22.49;27.69;97928.28;5023764;28;1398;-80
2023/07/28 10:45:23;;;;;;;;;;;;;;;22.70;27.30;97923.97;5024813;28;885;-80
2023/07/28 10:47:49;;;;;;;;;;;;;;;22.62;27.47;97917.72;5024838;28;1030;-80
2023/07/28 10:50:15;;;;;;;;;;;;;;;22.80;27.01;97912.28;5060316;28;1202;-80
2023/07/28 10:52:43;;;;;;;;;;;;;;;22.48;27.45;97912.50;5044576;28;1176;-80
2023/07/28 10:55:13;;;;;;;;;;;;;;;22.60;27.36;97915.34;5056965;28;753;-80
2023/07/28 10:57:38;;;;;;;;;;;;;;;22.56;27.26;97913.88;5061017;28;1905;-80
2023/07/28 11:00:04;;;;;;;;;;;;;;;22.73;27.20;97912.50;5020051;28;847;-80
2023/07/28 11:02:31;;;;;;;;;;;;;;;22.52;27.43;97908.31;5021499;28;954;-80
2023/07/28 11:04:56;;;;;;;;;;;;;;;22.55;27.44;97900.94;5020387;28;1107;-80
2023/07/28 11:07:22;;;;;;;;;;;;;;;22.63;27.40;97908.75;5021836;28;806;-80
2023/07/28 11:09:47;;;;;;;;;;;;;;;22.35;27.83;97893.44;5020748;28;810;-80
2023/07/28 11:12:13;;;;;;;;;;;;;;;22.44;27.56;97895.63;5021849;28;1376;-80
2023/07/28 11:14:39;;;;;;;;;;;;;;;22.67;27.40;97896.50;5008729;28;1322;-80
2023/07/28 11:17:04;;;;;;;;;;;;;;;22.59;27.56;97898.78;5022111;28;1914;-80
2023/07/28 11:19:30;;;;;;;;;;;;;;;22.58;27.44;97900.81;5021293;28;1406;-80
2023/07/28 11:21:55;;;;;;;;;;;;;;;22.43;27.89;97893.22;5022570;28;823;-80
2023/07/28 11:24:21;;;;;;;;;;;;;;;22.58;27.52;97895.13;5004347;28;1107;-81
2023/07/28 11:26:46;;;;;;;;;;;;;;;22.62;27.73;97878.03;5022309;28;1123;-80
2023/07/28 11:29:12;;;;;;;;;;;;;;;22.70;27.21;97885.06;5021135;28;1421;-81
2023/07/28 11:31:37;;;;;;;;;;;;;;;22.38;28.03;97869.06;5037750;28;955;-80
2023/07/28 11:34:03;;;;;;;;;;;;;;;22.56;27.82;97885.50;5041096;28;810;-80
2023/07/28 11:36:29;;;;;;;;;;;;;;;22.81;27.02;97879.81;5041879;28;1898;-81
2023/07/28 11:38:55;;;;;;;;;;;;;;;22.55;27.67;97886.75;5042693;28;947;-80
2023/07/28 11:41:20;;;;;;;;;;;;;;;22.68;27.26;97887.53;5046772;28;850;-81
2023/07/28 11:43:49;;;;;;;;;;;;;;;22.60;27.55;97874.84;5044474;28;1429;-80
2023/07/28 11:46:33;;;;;;;;;;;;;;;22.68;27.29;97881.06;5046297;28;1319;-81
2023/07/28 11:49:22;;;;;;;;;;;;;;;22.55;27.53;97872.59;5028238;28;1184;-81
2023/07/28 11:51:48;;;;;;;;;;;;;;;22.48;27.58;97867.13;5030055;28;1236;-80
2023/07/28 11:54:15;;;;;;;;;;;;;;;22.39;27.82;97878.38;5045036;28;850;-81
2023/07/28 11:56:41;;;;;;;;;;;;;;;22.48;27.83;97867.13;5029807;28;1961;-81
2023/07/28 11:59:07;;;;;;;;;;;;;;;22.44;27.63;97867.25;5027581;28;1476;-80
2023/07/28 12:01:32;;;;;;;;;;;;;;;22.47;27.67;97865.53;5064219;28;1309;-81
2023/07/28 12:04:00;;;;;;;;;;;;;;;22.51;27.86;97849.22;5028834;28;771;-80
2023/07/28 12:06:26;;;;;;;;;;;;;;;22.36;27.85;97860.22;5045866;28;778;-81
2023/07/28 12:08:51;;;;;;;;;;;;;;;22.59;27.72;97851.38;5044882;28;901;-80
2023/07/28 12:11:17;;;;;;;;;;;;;;;22.72;27.46;97854.19;5029561;28;860;-80
2023/07/28 12:13:52;;;;;;;;;;;;;;;22.39;28.01;97858.53;5011733;28;1044;-81
2023/07/28 12:16:36;;;;;;;;;;;;;;;22.43;27.84;97853.53;5046188;28;1918;-81
2023/07/28 12:19:02;;;;;;;;;;;;;;;22.04;28.27;97852.69;5063043;28;762;-80
2023/07/28 12:21:27;;;;;;;;;;;;;;;22.42;27.93;97857.63;5030424;28;901;-81
2023/07/28 12:23:53;;;;;;;;;;;;;;;22.61;27.35;97848.88;5061960;28;804;-81
2023/07/28 12:26:19;;;;;;;;;;;;;;;22.47;27.86;97843.66;5046381;28;871;-80
2023/07/28 12:28:45;;;;;;;;;;;;;;;22.36;27.72;97846.06;5040011;28;1210;-81
2023/07/28 12:31:11;;;;;;;;;;;;;;;22.60;27.64;97840.81;5041145;28;1397;-80
2023/07/28 12:33:36;;;;;;;;;;;;;;;22.53;27.71;97841.03;5039435;28;806;-81
2023/07/28 12:36:02;;;;;;;;;;;;;;;22.48;27.75;97835.94;5024584;28;882;-80
2023/07/28 12:38:28;;;;;;;;;;;;;;;22.19;27.69;97845.38;5022876;28;1910;-80
2023/07/28 12:40:54;;;;;;;;;;;;;;;22.32;27.72;97831.97;5022322;28;911;-81
2023/07/28 12:43:20;;;;;;;;;;;;;;;22.44;27.84;97832.44;5020646;28;865;-81
2023/07/28 12:45:46;;;;;;;;;;;;;;;22.82;27.28;97829.53;5004614;28;1517;-80
2023/07/28 12:48:11;;;;;;;;;;;;;;;22.56;27.56;97825.97;5020199;28;1593;-81
2023/07/28 12:50:37;;;;;;;;;;;;;;;22.47;27.48;97826.66;4989479;28;1172;-80
2023/07/28 12:53:03;;;;;;;;;;;;;;;22.72;27.21;97820.16;5021360;28;896;-80
2023/07/28 12:55:29;;;;;;;;;;;;;;;22.82;27.06;97823.88;5004884;28;1140;-81
2023/07/28 12:57:54;;;;;;;;;;;;;;;22.53;27.81;97807.81;5004669;28;1910;-80